createdAt,value
2018-07-06T00:00:07.055Z,19.77
2018-07-06T00:02:47.303Z,19.70
2018-07-06T00:05:27.160Z,19.69
2018-07-06T00:08:06.941Z,19.63
2018-07-06T00:10:46.943Z,19.61
2018-07-06T00:13:26.634Z,19.58
2018-07-06T00:16:06.563Z,19.51
2018-07-06T00:18:46.482Z,19.43
2018-07-06T00:21:26.451Z,19.38
2018-07-06T00:24:06.366Z,19.32
2018-07-06T00:26:46.195Z,19.29
2018-07-06T00:29:26.252Z,19.29
2018-07-06T00:32:06.097Z,19.28
2018-07-06T00:34:45.761Z,19.26
2018-07-06T00:37:25.684Z,19.25
2018-07-06T00:40:05.314Z,19.23
2018-07-06T00:42:44.981Z,19.20
2018-07-06T00:45:24.775Z,19.15
2018-07-06T00:48:04.633Z,19.11
2018-07-06T00:50:44.563Z,19.08
2018-07-06T00:53:24.305Z,19.08
2018-07-06T00:56:04.109Z,19.03
2018-07-06T00:58:43.778Z,19.02
2018-07-06T01:01:23.659Z,19.06
2018-07-06T01:04:03.358Z,19.07
2018-07-06T01:06:43.131Z,18.99
2018-07-06T01:09:22.970Z,19.01
2018-07-06T01:12:08.043Z,19.00
2018-07-06T01:14:47.889Z,18.99
2018-07-06T01:17:27.560Z,18.92
2018-07-06T01:20:07.457Z,18.88
2018-07-06T01:22:47.355Z,18.85
2018-07-06T01:25:27.143Z,18.87
2018-07-06T01:28:06.819Z,18.80
2018-07-06T01:30:46.605Z,18.72
2018-07-06T01:33:26.442Z,18.71
2018-07-06T01:36:06.233Z,18.72
2018-07-06T01:38:46.098Z,18.75
2018-07-06T01:41:25.917Z,18.76
2018-07-06T01:44:05.737Z,18.79
2018-07-06T01:46:45.510Z,18.77
2018-07-06T01:49:25.189Z,18.76
2018-07-06T01:52:04.942Z,18.71
2018-07-06T01:54:44.639Z,18.64
2018-07-06T01:57:24.522Z,18.63
2018-07-06T02:00:05.307Z,18.65
2018-07-06T02:02:45.233Z,18.54
2018-07-06T02:05:25.196Z,18.49
2018-07-06T02:08:05.040Z,18.44
2018-07-06T02:10:44.757Z,18.42
2018-07-06T02:13:24.543Z,18.41
2018-07-06T02:16:04.878Z,18.36
2018-07-06T02:18:44.726Z,18.35
2018-07-06T02:21:24.637Z,18.34
2018-07-06T02:24:04.504Z,18.34
2018-07-06T02:26:44.145Z,18.37
2018-07-06T02:29:23.846Z,18.32
2018-07-06T02:32:03.638Z,18.28
2018-07-06T02:34:43.416Z,18.22
2018-07-06T02:37:23.201Z,18.20
2018-07-06T02:40:03.052Z,18.20
2018-07-06T02:42:42.660Z,18.13
2018-07-06T02:45:22.361Z,18.14
2018-07-06T02:48:02.261Z,18.12
2018-07-06T02:50:42.134Z,18.11
2018-07-06T02:53:21.882Z,18.07
2018-07-06T02:56:01.635Z,17.99
2018-07-06T02:58:41.382Z,17.99
2018-07-06T03:01:21.166Z,18.01
2018-07-06T03:04:01.087Z,18.00
2018-07-06T03:06:40.879Z,18.04
2018-07-06T03:09:20.554Z,18.08
2018-07-06T03:12:00.289Z,18.05
2018-07-06T03:14:40.103Z,18.08
2018-07-06T03:17:20.136Z,18.13
2018-07-06T03:19:59.956Z,18.15
2018-07-06T03:22:39.915Z,18.11
2018-07-06T03:25:19.891Z,18.19
2018-07-06T03:27:59.748Z,18.23
2018-07-06T03:30:39.750Z,18.31
2018-07-06T03:33:19.534Z,18.38
2018-07-06T03:35:59.305Z,18.42
2018-07-06T03:38:39.207Z,18.50
2018-07-06T03:41:19.238Z,18.54
2018-07-06T03:43:59.122Z,18.57
2018-07-06T03:46:38.846Z,18.58
2018-07-06T03:49:18.664Z,18.62
2018-07-06T03:51:58.409Z,18.66
2018-07-06T03:54:38.423Z,18.65
2018-07-06T03:57:18.271Z,18.72
2018-07-06T03:59:58.131Z,18.62
2018-07-06T04:02:37.884Z,18.60
2018-07-06T04:05:17.862Z,18.66
2018-07-06T04:07:57.568Z,18.67
2018-07-06T04:10:37.395Z,18.72
2018-07-06T04:13:17.312Z,18.77
2018-07-06T04:15:57.088Z,18.80
2018-07-06T04:18:37.195Z,18.76
2018-07-06T04:21:16.981Z,18.84
2018-07-06T04:23:56.704Z,18.85
2018-07-06T04:26:36.556Z,18.92
2018-07-06T04:29:16.346Z,19.00
2018-07-06T04:31:56.250Z,19.05
2018-07-06T04:34:35.970Z,19.18
2018-07-06T04:37:15.802Z,19.28
2018-07-06T04:39:55.639Z,19.34
2018-07-06T04:42:35.467Z,19.40
2018-07-06T04:45:15.244Z,19.45
2018-07-06T04:47:55.115Z,19.54
2018-07-06T04:50:35.019Z,19.79
2018-07-06T04:53:14.725Z,19.98
2018-07-06T04:55:54.412Z,20.89
2018-07-06T04:58:34.317Z,22.15
2018-07-06T05:01:14.169Z,23.22
2018-07-06T05:03:54.137Z,23.98
2018-07-06T05:06:34.074Z,24.66
2018-07-06T05:09:13.902Z,25.39
2018-07-06T05:11:53.910Z,26.23
2018-07-06T05:14:33.891Z,26.33
2018-07-06T05:17:13.787Z,26.82
2018-07-06T05:19:53.545Z,27.14
2018-07-06T05:22:33.507Z,27.26
2018-07-06T05:25:13.622Z,27.29
2018-07-06T05:27:53.444Z,27.42
2018-07-06T05:30:33.411Z,27.63
2018-07-06T05:33:13.112Z,27.39
2018-07-06T05:35:52.942Z,27.07
2018-07-06T05:38:32.789Z,27.22
2018-07-06T05:41:12.556Z,27.44
2018-07-06T05:43:52.477Z,27.62
2018-07-06T05:46:32.276Z,27.77
2018-07-06T05:49:12.032Z,27.95
2018-07-06T05:51:52.154Z,28.05
2018-07-06T05:54:31.833Z,27.94
2018-07-06T05:57:11.643Z,27.81
2018-07-06T05:59:51.486Z,27.85
2018-07-06T06:02:31.499Z,27.89
2018-07-06T06:05:11.234Z,27.55
2018-07-06T06:07:38.936Z,27.27
2018-07-06T06:10:07.773Z,26.94
2018-07-06T06:12:36.520Z,26.49
2018-07-06T06:15:05.337Z,26.18
2018-07-06T06:17:34.077Z,25.85
2018-07-06T06:20:02.848Z,25.70
2018-07-06T06:22:31.577Z,25.55
2018-07-06T06:25:00.294Z,25.42
2018-07-06T06:27:29.006Z,25.41
2018-07-06T06:29:57.806Z,25.20
2018-07-06T06:32:26.970Z,25.37
2018-07-06T06:34:55.816Z,25.39
2018-07-06T06:37:24.649Z,25.18
2018-07-06T06:39:53.522Z,25.08
2018-07-06T06:42:22.422Z,24.92
2018-07-06T06:44:51.619Z,24.96
2018-07-06T06:47:20.554Z,25.04
2018-07-06T06:49:49.370Z,24.97
2018-07-06T06:52:18.355Z,24.96
2018-07-06T06:54:47.186Z,24.93
2018-07-06T06:57:16.363Z,24.85
2018-07-06T06:59:45.203Z,24.82
2018-07-06T07:02:13.967Z,24.78
2018-07-06T07:04:42.847Z,24.68
2018-07-06T07:07:11.637Z,24.52
2018-07-06T07:09:40.439Z,24.57
2018-07-06T07:12:09.193Z,24.40
2018-07-06T07:14:37.987Z,24.40
2018-07-06T07:17:06.752Z,24.44
2018-07-06T07:19:35.573Z,24.51
2018-07-06T07:22:04.327Z,24.70
2018-07-06T07:24:33.284Z,24.67
2018-07-06T07:27:02.704Z,24.61
2018-07-06T07:29:31.539Z,24.57
2018-07-06T07:32:00.581Z,24.73
2018-07-06T07:34:29.557Z,24.89
2018-07-06T07:36:58.359Z,24.92
2018-07-06T07:39:27.211Z,24.85
2018-07-06T07:41:56.067Z,24.94
2018-07-06T07:44:24.850Z,25.10
2018-07-06T07:46:53.718Z,25.03
2018-07-06T07:49:22.486Z,25.09
2018-07-06T07:52:04.714Z,25.15
2018-07-06T07:54:45.379Z,25.16
2018-07-06T07:57:14.580Z,25.23
2018-07-06T07:59:43.603Z,25.32
2018-07-06T08:02:12.437Z,25.31
2018-07-06T08:04:41.563Z,25.36
2018-07-06T08:07:10.414Z,25.42
2018-07-06T08:09:39.330Z,25.50
2018-07-06T08:12:08.751Z,25.55
2018-07-06T08:14:38.046Z,25.49
2018-07-06T08:17:06.907Z,25.54
2018-07-06T08:19:35.722Z,25.51
2018-07-06T08:22:04.525Z,25.59
2018-07-06T08:24:33.261Z,25.53
2018-07-06T08:27:02.049Z,25.66
2018-07-06T08:29:30.799Z,25.79
2018-07-06T08:31:59.563Z,25.81
2018-07-06T08:34:39.307Z,25.90
2018-07-06T08:37:32.490Z,25.95
2018-07-06T08:40:01.415Z,25.96
2018-07-06T08:42:31.409Z,26.03
2018-07-06T08:45:00.894Z,26.03
2018-07-06T08:47:29.800Z,26.05
2018-07-06T08:49:59.311Z,26.10
2018-07-06T08:52:29.451Z,26.16
2018-07-06T08:54:58.266Z,26.21
2018-07-06T08:57:28.444Z,26.30
2018-07-06T08:59:57.206Z,26.39
2018-07-06T09:02:26.289Z,26.47
2018-07-06T09:04:55.923Z,26.41
2018-07-06T09:07:25.021Z,26.38
2018-07-06T09:09:54.536Z,26.37
2018-07-06T09:12:23.282Z,26.37
2018-07-06T09:14:52.149Z,26.46
2018-07-06T09:17:21.803Z,26.59
2018-07-06T09:19:51.134Z,26.58
2018-07-06T09:22:20.543Z,26.63
2018-07-06T09:24:51.433Z,26.71
2018-07-06T09:27:20.238Z,26.75
2018-07-06T09:29:49.121Z,26.78
2018-07-06T09:32:17.860Z,26.85
2018-07-06T09:34:46.732Z,26.92
2018-07-06T09:37:15.856Z,26.97
2018-07-06T09:39:45.774Z,27.16
2018-07-06T09:42:14.991Z,27.32
2018-07-06T09:44:44.194Z,27.37
2018-07-06T09:47:12.991Z,27.50
2018-07-06T09:49:41.865Z,27.54
2018-07-06T09:52:10.630Z,27.52
2018-07-06T09:54:39.523Z,27.50
2018-07-06T09:57:08.318Z,27.44
2018-07-06T09:59:37.169Z,27.46
2018-07-06T10:02:05.987Z,27.45
2018-07-06T10:04:34.787Z,27.52
2018-07-06T10:07:03.609Z,27.53
2018-07-06T10:09:32.392Z,27.54
2018-07-06T10:12:01.151Z,27.60
2018-07-06T10:14:29.962Z,27.61
2018-07-06T10:16:58.781Z,27.68
2018-07-06T10:19:28.035Z,27.73
2018-07-06T10:21:57.157Z,27.79
2018-07-06T10:24:26.039Z,27.85
2018-07-06T10:26:54.834Z,28.01
2018-07-06T10:30:40.424Z,28.16
2018-07-06T10:33:09.673Z,28.50
2018-07-06T10:35:38.687Z,28.68
2018-07-06T10:38:07.589Z,28.78
2018-07-06T10:40:36.331Z,28.84
2018-07-06T10:43:05.511Z,29.00
2018-07-06T10:45:34.292Z,29.14
2018-07-06T10:48:03.090Z,29.09
2018-07-06T10:50:31.963Z,29.04
2018-07-06T10:53:00.729Z,29.03
2018-07-06T10:55:29.635Z,29.22
2018-07-06T10:57:58.391Z,29.44
2018-07-06T11:00:27.144Z,29.67
2018-07-06T11:02:55.902Z,29.73
2018-07-06T11:05:24.753Z,29.64
2018-07-06T11:07:53.640Z,29.71
2018-07-06T11:10:22.365Z,29.87
2018-07-06T11:12:51.170Z,29.92
2018-07-06T11:15:19.951Z,29.79
2018-07-06T11:17:48.821Z,29.66
2018-07-06T11:20:17.795Z,29.66
2018-07-06T11:22:46.551Z,29.62
2018-07-06T11:25:15.374Z,29.61
2018-07-06T11:27:44.332Z,29.70
2018-07-06T11:30:13.268Z,29.85
2018-07-06T11:32:42.049Z,29.77
2018-07-06T11:35:10.826Z,29.77
2018-07-06T11:37:39.546Z,29.65
2018-07-06T11:40:08.333Z,29.66
2018-07-06T11:42:37.073Z,29.72
2018-07-06T11:45:05.879Z,29.88
2018-07-06T11:47:34.775Z,29.94
2018-07-06T11:50:03.998Z,30.02
2018-07-06T11:52:32.710Z,30.16
2018-07-06T11:55:01.490Z,30.23
2018-07-06T11:57:30.262Z,30.24
2018-07-06T11:59:59.012Z,30.18
2018-07-06T12:02:27.768Z,30.16
2018-07-06T12:04:56.505Z,30.13
2018-07-06T12:07:25.294Z,30.17
2018-07-06T12:09:54.070Z,30.39
2018-07-06T12:12:23.218Z,30.52
2018-07-06T12:14:51.998Z,30.73
2018-07-06T12:17:20.797Z,30.94
2018-07-06T12:19:49.535Z,30.97
2018-07-06T12:22:18.353Z,30.82
2018-07-06T12:24:47.198Z,30.83
2018-07-06T12:27:15.940Z,30.84
2018-07-06T12:29:44.712Z,30.95
2018-07-06T12:32:13.482Z,30.98
2018-07-06T12:34:42.270Z,31.12
2018-07-06T12:37:11.068Z,31.18
2018-07-06T12:39:39.812Z,31.02
2018-07-06T12:42:08.559Z,30.89
2018-07-06T12:44:37.309Z,30.92
2018-07-06T12:47:06.103Z,31.08
2018-07-06T12:49:34.845Z,30.95
2018-07-06T12:52:03.691Z,30.79
2018-07-06T12:54:32.659Z,30.26
2018-07-06T12:57:01.484Z,30.15
2018-07-06T12:59:30.252Z,30.20
2018-07-06T13:01:59.041Z,30.12
2018-07-06T13:04:27.822Z,29.82
2018-07-06T13:06:56.713Z,29.93
2018-07-06T13:09:25.503Z,29.93
2018-07-06T13:11:54.298Z,30.12
2018-07-06T13:14:23.555Z,30.32
2018-07-06T13:16:52.343Z,30.50
2018-07-06T13:19:21.543Z,30.74
2018-07-06T13:21:50.340Z,30.81
2018-07-06T13:24:19.135Z,30.81
2018-07-06T13:26:47.921Z,30.79
2018-07-06T13:29:16.724Z,30.73
2018-07-06T13:31:45.561Z,30.62
2018-07-06T13:34:14.617Z,30.52
2018-07-06T13:36:43.464Z,30.40
2018-07-06T13:39:12.434Z,30.42
2018-07-06T13:41:41.473Z,30.26
2018-07-06T13:44:16.705Z,30.09
2018-07-06T13:46:45.531Z,29.94
2018-07-06T13:49:14.527Z,29.60
2018-07-06T13:51:43.300Z,29.07
2018-07-06T13:54:12.079Z,28.74
2018-07-06T13:56:40.928Z,28.14
2018-07-06T13:59:09.707Z,27.72
2018-07-06T14:01:38.658Z,27.41
2018-07-06T14:04:07.560Z,27.71
2018-07-06T14:06:36.352Z,27.98
2018-07-06T14:09:05.732Z,27.91
2018-07-06T14:11:34.554Z,27.57
2018-07-06T14:14:03.303Z,27.58
2018-07-06T14:16:32.118Z,27.66
2018-07-06T14:19:00.890Z,27.21
2018-07-06T14:21:29.678Z,26.86
2018-07-06T14:23:58.504Z,26.59
2018-07-06T14:26:27.687Z,26.44
2018-07-06T14:28:56.578Z,26.47
2018-07-06T14:31:25.370Z,26.51
2018-07-06T14:33:54.123Z,26.61
2018-07-06T14:36:53.309Z,26.77
2018-07-06T14:39:22.147Z,26.97
2018-07-06T14:42:03.866Z,26.83
2018-07-06T14:44:32.682Z,26.32
2018-07-06T14:47:01.469Z,26.07
2018-07-06T14:49:30.605Z,25.88
2018-07-06T14:51:59.359Z,26.20
2018-07-06T14:54:28.145Z,26.30
2018-07-06T14:56:57.167Z,26.42
2018-07-06T14:59:26.033Z,26.64
2018-07-06T15:01:55.761Z,27.01
2018-07-06T15:04:24.542Z,27.17
2018-07-06T15:06:53.339Z,27.28
2018-07-06T15:09:22.321Z,27.51
2018-07-06T15:11:51.151Z,27.59
2018-07-06T15:14:19.989Z,27.54
2018-07-06T15:16:49.173Z,27.52
2018-07-06T15:19:17.959Z,27.56
2018-07-06T15:21:46.745Z,27.44
2018-07-06T15:24:15.560Z,27.32
2018-07-06T15:26:44.321Z,27.22
2018-07-06T15:29:13.183Z,27.27
2018-07-06T15:31:42.001Z,27.26
2018-07-06T15:34:11.130Z,27.25
2018-07-06T15:36:40.058Z,27.29
2018-07-06T15:39:08.954Z,27.35
2018-07-06T15:41:38.040Z,27.33
2018-07-06T15:44:06.852Z,27.28
2018-07-06T15:46:35.704Z,27.21
2018-07-06T15:49:04.463Z,27.18
2018-07-06T15:51:33.312Z,27.14
2018-07-06T15:54:02.101Z,27.17
2018-07-06T15:56:31.046Z,27.20
2018-07-06T15:58:59.897Z,27.17
2018-07-06T16:01:28.688Z,27.22
2018-07-06T16:03:57.808Z,27.09
2018-07-06T16:06:26.634Z,26.97
2018-07-06T16:08:55.439Z,27.05
2018-07-06T16:11:24.858Z,27.09
2018-07-06T16:13:53.872Z,27.09
2018-07-06T16:16:22.740Z,27.03
2018-07-06T16:18:51.552Z,27.06
2018-07-06T16:21:20.381Z,27.02
2018-07-06T16:23:49.191Z,27.03
2018-07-06T16:26:18.031Z,27.00
2018-07-06T16:28:46.872Z,27.04
2018-07-06T16:31:15.645Z,27.03
2018-07-06T16:33:44.430Z,26.96
2018-07-06T16:36:13.219Z,26.98
2018-07-06T16:38:42.048Z,26.96
2018-07-06T16:41:10.909Z,26.73
2018-07-06T16:43:39.679Z,26.69
2018-07-06T16:46:08.479Z,26.48
2018-07-06T16:48:37.828Z,26.42
2018-07-06T16:51:06.672Z,26.30
2018-07-06T16:53:35.454Z,26.11
2018-07-06T16:56:04.801Z,26.01
2018-07-06T16:58:33.617Z,25.90
2018-07-06T17:01:02.642Z,25.70
2018-07-06T17:03:31.846Z,25.67
2018-07-06T17:06:00.677Z,25.57
2018-07-06T17:08:29.483Z,25.53
2018-07-06T17:10:58.351Z,25.42
2018-07-06T17:13:27.160Z,25.32
2018-07-06T17:15:55.995Z,25.26
2018-07-06T17:18:25.072Z,25.20
2018-07-06T17:20:53.913Z,25.07
2018-07-06T17:23:22.952Z,24.86
2018-07-06T17:25:51.824Z,24.75
2018-07-06T17:28:20.934Z,24.74
2018-07-06T17:30:49.730Z,24.67
2018-07-06T17:33:18.554Z,24.68
2018-07-06T17:35:47.395Z,24.75
2018-07-06T17:38:16.556Z,24.78
2018-07-06T17:40:45.332Z,24.78
2018-07-06T17:43:14.163Z,24.74
2018-07-06T17:45:42.942Z,24.71
2018-07-06T17:48:11.867Z,24.71
2018-07-06T17:50:40.659Z,24.63
2018-07-06T17:53:09.592Z,24.62
2018-07-06T17:55:38.595Z,24.60
2018-07-06T17:58:07.413Z,24.64
2018-07-06T18:00:36.250Z,24.63
2018-07-06T18:03:05.069Z,24.66
2018-07-06T18:05:33.881Z,24.61
2018-07-06T18:08:02.677Z,24.58
2018-07-06T18:10:31.441Z,24.49
2018-07-06T18:13:00.583Z,24.39
2018-07-06T18:15:29.455Z,24.31
2018-07-06T18:17:58.322Z,24.18
2018-07-06T18:20:27.250Z,24.06
2018-07-06T18:22:56.229Z,24.01
2018-07-06T18:25:25.232Z,23.96
2018-07-06T18:27:54.419Z,23.91
2018-07-06T18:30:23.265Z,23.83
2018-07-06T18:32:55.713Z,23.84
2018-07-06T18:35:25.740Z,23.80
2018-07-06T18:37:54.559Z,23.81
2018-07-06T18:40:23.428Z,23.85
2018-07-06T18:42:52.258Z,23.83
2018-07-06T18:45:21.442Z,23.83
2018-07-06T18:47:50.244Z,23.86
2018-07-06T18:50:19.101Z,23.84
2018-07-06T18:52:47.910Z,23.85
2018-07-06T18:55:16.679Z,23.81
2018-07-06T18:57:45.514Z,23.79
2018-07-06T19:00:14.375Z,23.81
2018-07-06T19:02:43.159Z,23.80
2018-07-06T19:05:11.989Z,23.81
2018-07-06T19:07:40.846Z,23.82
2018-07-06T19:10:09.683Z,23.80
2018-07-06T19:12:38.489Z,23.77
2018-07-06T19:15:07.693Z,23.72
2018-07-06T19:17:36.898Z,23.67
2018-07-06T19:20:06.110Z,23.61
2018-07-06T19:22:34.909Z,23.59
2018-07-06T19:25:03.869Z,23.57
2018-07-06T19:27:32.709Z,23.58
2018-07-06T19:30:01.538Z,23.51
2018-07-06T19:32:30.331Z,23.40
2018-07-06T19:34:59.135Z,23.35
2018-07-06T19:37:27.913Z,23.32
2018-07-06T19:39:56.729Z,23.30
2018-07-06T19:42:25.447Z,23.27
2018-07-06T19:44:54.222Z,23.16
2018-07-06T19:47:23.005Z,23.08
2018-07-06T19:49:51.786Z,23.04
2018-07-06T19:52:20.546Z,23.03
2018-07-06T19:54:49.306Z,23.03
2018-07-06T19:57:18.129Z,22.94
2018-07-06T19:59:46.945Z,22.93
2018-07-06T20:02:16.247Z,22.87
2018-07-06T20:04:45.039Z,22.88
2018-07-06T20:07:13.835Z,22.85
2018-07-06T20:09:42.657Z,22.79
2018-07-06T20:12:11.465Z,22.67
2018-07-06T20:14:40.236Z,22.67
2018-07-06T20:17:09.076Z,22.67
2018-07-06T20:19:37.871Z,22.73
2018-07-06T20:22:06.690Z,22.73
2018-07-06T20:24:35.451Z,22.78
2018-07-06T20:27:04.274Z,22.84
2018-07-06T20:29:33.206Z,22.81
2018-07-06T20:32:01.994Z,22.75
2018-07-06T20:34:30.865Z,22.75
2018-07-06T20:36:59.659Z,22.75
2018-07-06T20:39:28.421Z,22.78
2018-07-06T20:41:58.910Z,22.78
2018-07-06T20:44:27.714Z,22.77
2018-07-06T20:47:03.082Z,22.78
2018-07-06T20:49:32.137Z,22.73
2018-07-06T20:52:00.959Z,22.74
2018-07-06T20:54:29.759Z,22.80
2018-07-06T20:56:59.432Z,22.82
2018-07-06T20:59:28.248Z,22.86
2018-07-06T21:01:57.427Z,22.87
2018-07-06T21:04:26.185Z,22.84
2018-07-06T21:06:54.961Z,22.82
2018-07-06T21:09:23.842Z,22.79
2018-07-06T21:11:52.731Z,22.71
2018-07-06T21:14:21.543Z,22.66
2018-07-06T21:16:50.314Z,22.62
2018-07-06T21:19:20.186Z,22.60
2018-07-06T21:21:48.976Z,22.61
2018-07-06T21:24:17.751Z,22.58
2018-07-06T21:26:46.539Z,22.55
2018-07-06T21:29:15.337Z,22.52
2018-07-06T21:31:44.144Z,22.54
2018-07-06T21:34:14.140Z,22.60
2018-07-06T21:36:42.948Z,22.60
2018-07-06T21:39:11.756Z,22.62
2018-07-06T21:41:40.567Z,22.61
2018-07-06T21:44:09.340Z,22.64
2018-07-06T21:46:38.107Z,22.66
2018-07-06T21:49:07.381Z,22.68
2018-07-06T21:51:36.211Z,22.67
2018-07-06T21:54:05.006Z,22.65
2018-07-06T21:56:33.825Z,22.59
2018-07-06T21:59:02.927Z,22.63
2018-07-06T22:01:32.166Z,22.51
2018-07-06T22:04:00.918Z,22.45
2018-07-06T22:06:30.441Z,22.45
2018-07-06T22:08:59.222Z,22.43
2018-07-06T22:11:27.986Z,22.45
2018-07-06T22:13:56.906Z,22.46
2018-07-06T22:16:25.697Z,22.40
2018-07-06T22:18:54.502Z,22.42
2018-07-06T22:21:23.255Z,22.40
2018-07-06T22:23:52.062Z,22.41
2018-07-06T22:26:20.914Z,22.41
2018-07-06T22:28:50.389Z,22.43
2018-07-06T22:31:19.189Z,22.42
2018-07-06T22:33:48.035Z,22.35
2018-07-06T22:36:16.905Z,22.31
2018-07-06T22:38:45.674Z,22.35
2018-07-06T22:41:14.458Z,22.35
2018-07-06T22:43:43.254Z,22.33
2018-07-06T22:46:12.098Z,22.26
2018-07-06T22:48:40.825Z,22.26
2018-07-06T22:51:09.591Z,22.24
2018-07-06T22:53:38.367Z,22.25
2018-07-06T22:56:07.581Z,22.09
2018-07-06T22:58:36.459Z,22.11
2018-07-06T23:01:05.442Z,22.11
2018-07-06T23:03:34.205Z,22.07
2018-07-06T23:06:03.385Z,21.98
2018-07-06T23:08:32.151Z,21.92
2018-07-06T23:11:00.944Z,21.75
2018-07-06T23:13:29.749Z,21.67
2018-07-06T23:15:58.541Z,21.64
2018-07-06T23:18:27.319Z,21.66
2018-07-06T23:20:56.093Z,21.60
2018-07-06T23:23:24.901Z,21.64
2018-07-06T23:25:53.658Z,21.65
2018-07-06T23:28:23.286Z,21.67
2018-07-06T23:30:52.090Z,21.58
2018-07-06T23:33:21.261Z,21.56
2018-07-06T23:35:50.030Z,21.53
2018-07-06T23:38:18.815Z,21.58
2018-07-06T23:40:47.814Z,21.60
2018-07-06T23:43:16.569Z,21.59
2018-07-06T23:45:45.386Z,21.56
2018-07-06T23:48:14.159Z,21.56
2018-07-06T23:50:42.926Z,21.54
2018-07-06T23:53:11.698Z,21.51
2018-07-06T23:55:40.486Z,21.54
2018-07-06T23:58:09.306Z,21.51
